Ridge, Texas
Current Conditions -  °F | °C
As of 12:35 PM on Thursday 30 Oct 2014 (Local Time) from KLHB Reporting Station
Scattered Clouds Scattered Clouds  
Wind Chill: 72°   Ceiling: Unl
Heat Index: 72°   Visibility: 10mi
Dew Point: 48°   Wind: 0mph
Humidity: 41%   Direction: NA
Pressure: 30.16"   Gusts: NA
Location:  31.0654°N, 96.4194°W
Report Text: KLHB 301735Z AUTO 00000KT 10SM SCT055 22/09 A3016 RMK AO2 T02240087
Loading
Personal Weather Stations






























Interactive Weather Map
Tropical Storm Tracking
New forecast layout! Learn more

10-Day Weather Forecast

Advertisements
Track Severe Weather on mobile